Time;durP1;ratioP1;P1;durP2;ratioP2;P2;SDS_P1;SDS_P2;PMS_P1;PMS_P2;Temp;Humidity;BMP_temperature;BMP_pressure;BME280_temperature;BME280_humidity;BME280_pressure;Samples;Min_cycle;Max_cycle;Signal;HPM_P1;HPM_P2
2024/01/14 00:01:29;;;;;;;9.87;7.00;;;3.00;99.90;;;;;;5015713;28;20663;-56
2024/01/14 00:03:55;;;;;;;10.90;7.37;;;3.00;99.90;;;;;;5014668;28;20508;-65
2024/01/14 00:06:21;;;;;;;11.47;6.30;;;3.00;99.90;;;;;;5009090;28;20846;-63
2024/01/14 00:08:47;;;;;;;12.00;6.13;;;3.00;99.90;;;;;;5021757;28;20482;-62
2024/01/14 00:11:12;;;;;;;12.83;6.70;;;3.00;99.90;;;;;;5010862;28;20192;-60
2024/01/14 00:13:38;;;;;;;13.73;6.83;;;3.00;99.90;;;;;;5012751;28;20198;-59
2024/01/14 00:16:04;;;;;;;6.90;5.60;;;3.00;99.90;;;;;;5010652;28;20172;-58
2024/01/14 00:18:29;;;;;;;7.57;6.17;;;3.00;99.90;;;;;;4972659;28;1113153;-61
2024/01/14 00:20:55;;;;;;;9.63;6.40;;;3.00;99.90;;;;;;5010827;28;20179;-60
2024/01/14 00:23:20;;;;;;;10.50;7.03;;;3.00;99.90;;;;;;5018109;28;20255;-58
2024/01/14 00:25:46;;;;;;;11.63;6.80;;;3.00;99.90;;;;;;5015312;28;20172;-60
2024/01/14 00:28:12;;;;;;;7.50;5.60;;;3.00;99.90;;;;;;5013933;28;20223;-61
2024/01/14 00:30:37;;;;;;;10.50;5.83;;;3.00;99.90;;;;;;5006303;28;20180;-62
2024/01/14 00:33:03;;;;;;;9.07;6.20;;;3.00;99.90;;;;;;5011357;28;20427;-59
2024/01/14 00:35:29;;;;;;;9.93;6.33;;;3.00;99.90;;;;;;5003292;28;20173;-58
2024/01/14 00:37:54;;;;;;;7.97;5.63;;;3.00;99.90;;;;;;5001303;28;20201;-59
2024/01/14 00:40:20;;;;;;;7.50;5.13;;;3.00;99.90;;;;;;5001984;28;20181;-63
2024/01/14 00:42:45;;;;;;;9.70;5.10;;;3.00;99.90;;;;;;5007082;28;20694;-53
2024/01/14 00:45:11;;;;;;;9.40;6.00;;;3.00;99.90;;;;;;5003794;28;20176;-52
2024/01/14 00:47:36;;;;;;;7.63;6.27;;;3.00;99.90;;;;;;5003197;28;20192;-59
2024/01/14 00:50:02;;;;;;;9.53;5.80;;;3.10;99.90;;;;;;5006183;28;20196;-61
2024/01/14 00:52:28;;;;;;;7.73;5.80;;;3.10;99.90;;;;;;5009413;28;20477;-61
2024/01/14 00:54:54;;;;;;;10.13;6.27;;;3.10;99.90;;;;;;5005400;28;20426;-63
2024/01/14 00:57:19;;;;;;;7.90;5.80;;;3.10;99.90;;;;;;5007852;28;20205;-58
2024/01/14 00:59:45;;;;;;;7.57;5.07;;;3.10;99.90;;;;;;5012475;28;20180;-61
2024/01/14 01:02:10;;;;;;;7.60;5.80;;;3.10;99.90;;;;;;5004552;28;20287;-59
2024/01/14 01:04:36;;;;;;;14.30;5.67;;;3.10;99.90;;;;;;5000392;28;20181;-60
2024/01/14 01:07:02;;;;;;;7.47;4.83;;;3.20;99.90;;;;;;5002854;28;20712;-61
2024/01/14 01:09:27;;;;;;;7.40;4.87;;;3.10;99.90;;;;;;4999201;28;20188;-59
2024/01/14 01:11:53;;;;;;;5.77;4.13;;;3.10;99.90;;;;;;5000178;28;20506;-58
2024/01/14 01:14:19;;;;;;;8.90;5.10;;;3.20;99.90;;;;;;5000542;28;20318;-61
2024/01/14 01:16:45;;;;;;;9.43;5.23;;;3.10;99.90;;;;;;5004880;28;20215;-61
2024/01/14 01:19:10;;;;;;;6.17;4.30;;;3.20;99.90;;;;;;5003099;28;20183;-60
2024/01/14 01:21:36;;;;;;;5.47;3.87;;;3.10;99.90;;;;;;5005455;28;21120;-59
2024/01/14 01:24:01;;;;;;;13.27;8.93;;;3.10;99.90;;;;;;5021919;28;20175;-55
2024/01/14 01:26:27;;;;;;;55.03;29.80;;;3.10;99.90;;;;;;5003907;28;20219;-61
2024/01/14 01:28:52;;;;;;;14.27;7.77;;;3.10;99.90;;;;;;5003296;28;20636;-65
2024/01/14 01:31:18;;;;;;;56.00;29.93;;;3.00;99.90;;;;;;5008933;28;20196;-66
2024/01/14 01:33:44;;;;;;;7.47;5.17;;;3.10;99.90;;;;;;5004405;28;20187;-63
2024/01/14 01:36:09;;;;;;;92.93;44.67;;;3.10;99.90;;;;;;5011874;28;20542;-57
2024/01/14 01:38:35;;;;;;;7.90;4.37;;;3.00;99.90;;;;;;5008074;28;20432;-60
2024/01/14 01:41:01;;;;;;;5.90;3.10;;;3.00;99.90;;;;;;5007896;28;20266;-60
2024/01/14 01:43:26;;;;;;;8.50;3.60;;;2.90;99.90;;;;;;5004184;28;20188;-58
2024/01/14 01:45:55;;;;;;;5.70;3.70;;;2.90;99.90;;;;;;5006330;28;20181;-58
2024/01/14 01:48:21;;;;;;;5.60;2.70;;;2.80;99.90;;;;;;5002414;28;20265;-57
2024/01/14 01:50:49;;;;;;;3.00;2.70;;;2.80;99.90;;;;;;5003278;28;20511;-58
2024/01/14 01:53:16;;;;;;;5.77;3.97;;;2.80;99.90;;;;;;5006781;28;20466;-57
2024/01/14 01:55:42;;;;;;;4.03;3.10;;;2.80;99.90;;;;;;4987602;28;20430;-62
2024/01/14 01:58:08;;;;;;;5.10;3.20;;;2.70;99.90;;;;;;5008830;28;20450;-60
2024/01/14 02:00:38;;;;;;;4.27;3.43;;;2.80;99.90;;;;;;5007479;28;20189;-57
2024/01/14 02:03:04;;;;;;;4.30;3.37;;;2.70;99.90;;;;;;5007822;28;20606;-58
2024/01/14 02:05:34;;;;;;;4.80;4.40;;;2.70;99.90;;;;;;5007810;28;20788;-58
2024/01/14 02:07:59;;;;;;;4.80;3.50;;;2.80;99.90;;;;;;5001208;28;20522;-56
2024/01/14 02:10:25;;;;;;;5.93;3.33;;;2.70;99.90;;;;;;5009477;28;21034;-56
2024/01/14 02:12:51;;;;;;;4.43;3.33;;;2.60;99.90;;;;;;5010392;28;20188;-60
2024/01/14 02:15:16;;;;;;;5.60;3.20;;;2.60;99.90;;;;;;5017542;28;20450;-61
2024/01/14 02:17:42;;;;;;;8.07;3.93;;;2.70;99.90;;;;;;5020471;28;20239;-61
2024/01/14 02:20:08;;;;;;;4.43;4.03;;;2.70;99.90;;;;;;5016102;28;20188;-62
2024/01/14 02:22:38;;;;;;;5.33;4.10;;;2.70;99.90;;;;;;5026187;28;20212;-56
2024/01/14 02:25:04;;;;;;;6.60;3.50;;;2.70;99.90;;;;;;5006573;28;20427;-57
2024/01/14 02:27:30;;;;;;;7.60;3.67;;;2.60;99.90;;;;;;5007711;28;20451;-59
2024/01/14 02:29:56;;;;;;;4.13;3.50;;;2.60;99.90;;;;;;5006460;28;20426;-62
2024/01/14 02:32:22;;;;;;;3.80;3.00;;;2.60;99.90;;;;;;5004154;28;20192;-67
2024/01/14 02:34:48;;;;;;;6.33;3.40;;;2.60;99.90;;;;;;5008170;28;20434;-60
2024/01/14 02:37:14;;;;;;;4.00;2.70;;;2.70;99.90;;;;;;5012880;28;20698;-63
2024/01/14 02:39:39;;;;;;;4.37;2.80;;;2.70;99.90;;;;;;5001911;28;21231;-62
2024/01/14 02:42:05;;;;;;;4.83;2.60;;;2.70;99.90;;;;;;5005916;28;20667;-64
2024/01/14 02:44:30;;;;;;;6.43;4.30;;;2.70;99.90;;;;;;5006370;28;20204;-64
2024/01/14 02:46:56;;;;;;;6.33;2.50;;;2.70;99.90;;;;;;5005627;28;20205;-65
2024/01/14 02:49:22;;;;;;;9.07;3.93;;;2.60;99.90;;;;;;5002403;28;20202;-59
2024/01/14 02:51:47;;;;;;;4.40;2.87;;;2.60;99.90;;;;;;5009376;28;20195;-60
2024/01/14 02:54:13;;;;;;;3.93;2.60;;;2.60;99.90;;;;;;5017960;28;20658;-59
2024/01/14 02:56:38;;;;;;;9.00;3.20;;;2.60;99.90;;;;;;5011662;28;20207;-61
2024/01/14 02:59:04;;;;;;;6.17;3.40;;;2.70;99.90;;;;;;5012808;28;20184;-57
2024/01/14 03:01:30;;;;;;;5.37;2.80;;;2.70;99.90;;;;;;5007050;28;20188;-56
2024/01/14 03:03:55;;;;;;;6.23;3.17;;;2.80;99.90;;;;;;5008829;28;20190;-58
2024/01/14 03:06:21;;;;;;;4.93;3.10;;;2.70;99.90;;;;;;5005363;28;20538;-62
2024/01/14 03:08:46;;;;;;;3.97;3.20;;;2.70;99.90;;;;;;5004419;28;20678;-62
2024/01/14 03:11:12;;;;;;;5.67;2.73;;;2.70;99.90;;;;;;5013634;28;20176;-56
2024/01/14 03:13:38;;;;;;;7.43;2.87;;;2.70;99.90;;;;;;5005519;28;20242;-59
2024/01/14 03:16:03;;;;;;;3.87;3.40;;;2.70;99.90;;;;;;5008024;28;20650;-59
2024/01/14 03:18:29;;;;;;;4.80;2.50;;;2.60;99.90;;;;;;5017899;28;20243;-60
2024/01/14 03:20:54;;;;;;;9.83;2.60;;;2.60;99.90;;;;;;5007768;28;20195;-59
2024/01/14 03:23:20;;;;;;;11.03;2.83;;;2.60;99.90;;;;;;5011896;28;20175;-60
2024/01/14 03:25:46;;;;;;;5.73;2.57;;;2.60;99.90;;;;;;5002821;28;20266;-62
2024/01/14 03:28:11;;;;;;;8.03;3.37;;;2.60;99.90;;;;;;5005532;28;20547;-61
2024/01/14 03:30:37;;;;;;;5.60;2.10;;;2.60;99.90;;;;;;5005830;28;20164;-57
2024/01/14 03:33:02;;;;;;;12.60;2.43;;;2.70;99.90;;;;;;5007537;28;20180;-60
2024/01/14 03:35:29;;;;;;;6.30;2.23;;;2.60;99.90;;;;;;5003429;28;20597;-59
2024/01/14 03:37:54;;;;;;;7.30;2.67;;;2.60;99.90;;;;;;5015817;28;20210;-59
2024/01/14 03:40:20;;;;;;;4.80;2.50;;;2.60;99.90;;;;;;5020521;28;20909;-59
2024/01/14 03:42:46;;;;;;;4.30;2.30;;;2.50;99.90;;;;;;5010031;28;20234;-59
2024/01/14 03:45:11;;;;;;;4.93;3.10;;;2.50;99.90;;;;;;5006597;28;20199;-61
2024/01/14 03:47:37;;;;;;;5.47;3.03;;;2.50;99.90;;;;;;5019226;28;20192;-54
2024/01/14 03:50:03;;;;;;;10.53;3.03;;;2.50;99.90;;;;;;5011860;28;20226;-57
2024/01/14 03:52:28;;;;;;;6.00;2.33;;;2.40;99.90;;;;;;5022230;28;20179;-62
2024/01/14 03:54:54;;;;;;;8.53;2.33;;;2.40;99.90;;;;;;5010252;28;20488;-59
2024/01/14 03:57:20;;;;;;;5.67;3.17;;;2.30;99.90;;;;;;5008588;28;20197;-60
2024/01/14 03:59:46;;;;;;;8.07;2.60;;;2.30;99.90;;;;;;5011872;28;20481;-61
2024/01/14 04:02:11;;;;;;;4.47;2.50;;;2.20;99.90;;;;;;5010815;28;20611;-60
2024/01/14 04:04:37;;;;;;;3.90;1.90;;;2.30;99.90;;;;;;5014767;28;20197;-61
2024/01/14 04:07:03;;;;;;;2.10;1.60;;;2.30;99.90;;;;;;5009093;28;20212;-61
2024/01/14 04:09:28;;;;;;;11.53;2.23;;;2.30;99.90;;;;;;5005532;28;20657;-63
2024/01/14 04:11:54;;;;;;;10.00;2.77;;;2.40;99.90;;;;;;5006024;28;20183;-62
2024/01/14 04:14:19;;;;;;;8.47;2.87;;;2.40;99.90;;;;;;5003113;28;20721;-61
2024/01/14 04:16:45;;;;;;;5.63;2.03;;;2.40;99.90;;;;;;5001959;28;20209;-61
2024/01/14 04:19:11;;;;;;;6.43;2.40;;;2.50;99.90;;;;;;5005069;28;20172;-61
2024/01/14 04:21:37;;;;;;;3.47;1.57;;;2.50;99.90;;;;;;5003833;28;20825;-59
2024/01/14 04:24:02;;;;;;;4.50;1.87;;;2.50;99.90;;;;;;5011685;28;20172;-56
2024/01/14 04:26:29;;;;;;;9.37;2.40;;;2.50;99.90;;;;;;5008221;28;20172;-63
2024/01/14 04:28:55;;;;;;;3.77;2.83;;;2.50;99.90;;;;;;5007884;28;20167;-61
2024/01/14 04:31:21;;;;;;;11.00;2.20;;;2.60;99.90;;;;;;5016160;28;20432;-57
2024/01/14 04:33:47;;;;;;;6.10;1.60;;;2.60;99.90;;;;;;5016320;28;20466;-63
2024/01/14 04:36:14;;;;;;;6.67;3.00;;;2.60;99.90;;;;;;5001351;28;20177;-63
2024/01/14 04:38:40;;;;;;;13.70;2.70;;;2.60;99.90;;;;;;5003231;28;20414;-59
2024/01/14 04:41:06;;;;;;;9.17;1.70;;;2.60;99.90;;;;;;5009040;28;20507;-62
2024/01/14 04:43:31;;;;;;;5.00;2.50;;;2.60;99.90;;;;;;5002165;28;20184;-59
2024/01/14 04:45:57;;;;;;;6.53;1.53;;;2.60;99.90;;;;;;5007369;28;20191;-62
2024/01/14 04:48:22;;;;;;;9.80;2.27;;;2.70;99.90;;;;;;5004638;28;20199;-60
2024/01/14 04:50:50;;;;;;;6.87;3.07;;;2.70;99.90;;;;;;5007861;28;20252;-62
2024/01/14 04:53:15;;;;;;;2.30;1.47;;;2.70;99.90;;;;;;5001907;28;20191;-58
2024/01/14 04:55:41;;;;;;;7.03;2.10;;;2.70;99.90;;;;;;5001699;28;20443;-62
2024/01/14 04:58:06;;;;;;;4.23;2.23;;;2.70;99.90;;;;;;4985516;28;20203;-60
2024/01/14 05:00:32;;;;;;;4.00;1.50;;;2.70;99.90;;;;;;5003297;28;20190;-59
2024/01/14 05:02:58;;;;;;;13.57;2.07;;;2.70;99.90;;;;;;5002247;28;20207;-57
2024/01/14 05:05:23;;;;;;;8.97;2.40;;;2.70;99.90;;;;;;5002965;28;20168;-58
2024/01/14 05:07:49;;;;;;;5.13;1.60;;;2.70;99.90;;;;;;5020473;28;20215;-59
2024/01/14 05:10:14;;;;;;;14.23;2.90;;;2.70;99.90;;;;;;5023155;28;20179;-59
2024/01/14 05:12:40;;;;;;;12.13;2.47;;;2.70;99.90;;;;;;5015297;28;20180;-58
2024/01/14 05:15:06;;;;;;;2.77;2.03;;;2.70;99.90;;;;;;5013471;28;20590;-59
2024/01/14 05:17:32;;;;;;;5.80;1.37;;;2.70;99.90;;;;;;5019083;28;20235;-59
2024/01/14 05:19:57;;;;;;;7.10;1.63;;;2.70;99.90;;;;;;5021982;28;20433;-62
2024/01/14 05:22:23;;;;;;;5.87;3.53;;;2.70;99.90;;;;;;5021436;28;20257;-62
2024/01/14 05:24:52;;;;;;;5.37;2.30;;;2.70;99.90;;;;;;5024848;28;20177;-58
2024/01/14 05:27:18;;;;;;;5.10;2.23;;;2.70;99.90;;;;;;5017404;28;20210;-62
2024/01/14 05:29:44;;;;;;;12.40;2.07;;;2.70;99.90;;;;;;5018467;28;20423;-61
2024/01/14 05:32:14;;;;;;;3.20;1.90;;;2.70;99.90;;;;;;5022091;28;20188;-62
2024/01/14 05:34:40;;;;;;;6.20;2.20;;;2.70;99.90;;;;;;5026133;28;20454;-59
2024/01/14 05:37:06;;;;;;;8.17;2.60;;;2.70;99.90;;;;;;5015598;28;20499;-62
2024/01/14 05:39:33;;;;;;;6.83;1.90;;;2.70;99.90;;;;;;5020456;28;20837;-58
2024/01/14 05:41:59;;;;;;;7.40;2.10;;;2.70;99.90;;;;;;5021585;28;20700;-59
2024/01/14 05:44:25;;;;;;;11.67;2.57;;;2.70;99.90;;;;;;5022120;28;20418;-62
2024/01/14 05:46:51;;;;;;;6.17;2.47;;;2.70;99.90;;;;;;5020043;28;20189;-60
2024/01/14 05:49:18;;;;;;;6.43;1.70;;;2.80;99.90;;;;;;5012692;28;20433;-59
2024/01/14 05:51:44;;;;;;;3.40;1.97;;;2.70;99.90;;;;;;5026427;28;20910;-60
2024/01/14 05:54:09;;;;;;;9.70;2.00;;;2.70;99.90;;;;;;5025504;28;20488;-58
2024/01/14 05:56:35;;;;;;;5.93;1.90;;;2.70;99.90;;;;;;5008163;28;20231;-60
2024/01/14 05:59:00;;;;;;;6.87;1.70;;;2.80;99.90;;;;;;5014166;28;20184;-55
2024/01/14 06:01:29;;;;;;;6.67;2.23;;;2.70;99.90;;;;;;5011287;28;20607;-58
2024/01/14 06:03:55;;;;;;;9.27;3.00;;;2.60;99.90;;;;;;5018751;28;20250;-56
2024/01/14 06:06:21;;;;;;;4.17;2.00;;;2.60;99.90;;;;;;5016562;28;20429;-59
2024/01/14 06:08:47;;;;;;;4.20;1.80;;;2.60;99.90;;;;;;5013627;28;20497;-61
2024/01/14 06:11:13;;;;;;;6.10;1.83;;;2.60;99.90;;;;;;5002408;28;20216;-63
2024/01/14 06:13:39;;;;;;;3.27;1.77;;;2.50;99.90;;;;;;5004365;28;20223;-61
2024/01/14 06:16:05;;;;;;;7.23;1.53;;;2.50;99.90;;;;;;5007662;28;20409;-61
2024/01/14 06:18:30;;;;;;;7.57;2.47;;;2.60;99.90;;;;;;5007912;28;20832;-62
2024/01/14 06:20:59;;;;;;;4.47;2.03;;;2.50;99.90;;;;;;5005035;28;20185;-56
2024/01/14 06:23:25;;;;;;;5.17;1.90;;;2.50;99.90;;;;;;5003900;28;20176;-58
2024/01/14 06:25:51;;;;;;;5.33;2.10;;;2.30;99.90;;;;;;5002422;28;20458;-61
2024/01/14 06:28:16;;;;;;;3.47;1.90;;;2.30;99.90;;;;;;5003217;28;20963;-63
2024/01/14 06:30:42;;;;;;;7.57;2.73;;;2.30;99.90;;;;;;5005757;28;20250;-58
2024/01/14 06:33:09;;;;;;;5.90;1.80;;;2.40;99.90;;;;;;5009103;28;20210;-59
2024/01/14 06:35:34;;;;;;;6.77;1.67;;;2.40;99.90;;;;;;5007364;28;20200;-60
2024/01/14 06:38:00;;;;;;;4.83;2.03;;;2.40;99.90;;;;;;5008315;28;20439;-57
2024/01/14 06:40:26;;;;;;;4.40;1.73;;;2.40;99.90;;;;;;5016921;28;20188;-59
2024/01/14 06:42:51;;;;;;;7.37;1.87;;;2.40;99.90;;;;;;5007451;28;20196;-60
2024/01/14 06:45:17;;;;;;;4.80;1.90;;;2.30;99.90;;;;;;5013910;28;20180;-62
2024/01/14 06:47:42;;;;;;;4.40;2.00;;;2.40;99.90;;;;;;5014322;28;20207;-60
2024/01/14 06:50:09;;;;;;;8.10;2.27;;;2.40;99.90;;;;;;5007614;28;20184;-57
2024/01/14 06:52:34;;;;;;;5.10;1.93;;;2.40;99.90;;;;;;5009781;28;20191;-58
2024/01/14 06:55:00;;;;;;;7.00;1.80;;;2.40;99.90;;;;;;5007257;28;20412;-58
2024/01/14 06:57:26;;;;;;;5.37;1.90;;;2.50;99.90;;;;;;4988605;28;20211;-61
2024/01/14 06:59:51;;;;;;;6.63;1.83;;;2.50;99.90;;;;;;5004176;28;20181;-57
2024/01/14 07:02:17;;;;;;;4.70;2.10;;;2.40;99.90;;;;;;5017092;28;20211;-57
2024/01/14 07:04:42;;;;;;;11.73;2.30;;;2.40;99.90;;;;;;5012621;28;20639;-56
2024/01/14 07:07:08;;;;;;;4.87;2.50;;;2.40;99.90;;;;;;5005853;28;20651;-59
2024/01/14 07:09:34;;;;;;;6.63;2.57;;;2.40;99.90;;;;;;5013577;28;20697;-59
2024/01/14 07:12:01;;;;;;;6.50;2.07;;;2.50;99.90;;;;;;5012723;28;20176;-55
2024/01/14 07:14:26;;;;;;;3.67;2.13;;;2.50;99.90;;;;;;5007004;28;20444;-52
2024/01/14 07:16:52;;;;;;;4.30;1.57;;;2.50;99.90;;;;;;5010893;28;20622;-55
2024/01/14 07:19:17;;;;;;;11.07;2.50;;;2.50;99.90;;;;;;5004756;28;20180;-59
2024/01/14 07:21:44;;;;;;;8.53;2.50;;;2.50;99.90;;;;;;5028633;28;20662;-54
2024/01/14 07:24:09;;;;;;;10.70;2.57;;;2.50;99.90;;;;;;5012802;28;20180;-59
2024/01/14 07:26:35;;;;;;;4.30;2.97;;;2.50;99.90;;;;;;5003414;28;20587;-60
2024/01/14 07:29:01;;;;;;;3.50;2.13;;;2.50;99.90;;;;;;5018937;28;20176;-57
2024/01/14 07:31:27;;;;;;;8.60;2.63;;;2.50;99.90;;;;;;5016521;28;20185;-60
2024/01/14 07:33:53;;;;;;;2.80;2.10;;;2.50;99.90;;;;;;5007665;28;20172;-57
2024/01/14 07:36:19;;;;;;;2.60;1.50;;;2.50;99.90;;;;;;5011671;28;20483;-57
2024/01/14 07:38:45;;;;;;;6.07;1.67;;;2.50;99.90;;;;;;5008933;28;20184;-60
2024/01/14 07:41:15;;;;;;;4.37;2.10;;;2.50;99.90;;;;;;5015256;28;20438;-59
2024/01/14 07:43:41;;;;;;;5.80;2.23;;;2.50;99.90;;;;;;5000703;28;20467;-62
2024/01/14 07:46:07;;;;;;;5.27;2.40;;;2.50;99.90;;;;;;5004427;28;20463;-59
2024/01/14 07:48:34;;;;;;;6.30;2.23;;;2.60;99.90;;;;;;5005248;28;20779;-58
2024/01/14 07:51:00;;;;;;;5.33;2.20;;;2.50;99.90;;;;;;4996930;28;20506;-60
2024/01/14 07:53:26;;;;;;;4.27;1.90;;;2.50;99.90;;;;;;5002552;28;20416;-58
2024/01/14 07:55:52;;;;;;;2.70;1.87;;;2.60;99.90;;;;;;5005154;28;20471;-61
2024/01/14 07:58:18;;;;;;;5.60;2.30;;;2.60;99.90;;;;;;5006170;28;20483;-59
2024/01/14 08:00:44;;;;;;;4.40;1.70;;;2.70;99.90;;;;;;4993970;28;20185;-58
2024/01/14 08:03:10;;;;;;;6.50;2.10;;;2.70;99.90;;;;;;5007880;28;20866;-59
2024/01/14 08:05:37;;;;;;;5.47;1.93;;;2.70;99.90;;;;;;5014169;28;20419;-64
2024/01/14 08:08:04;;;;;;;7.10;2.80;;;2.70;99.90;;;;;;5012461;28;20439;-63
2024/01/14 08:10:29;;;;;;;5.80;3.20;;;2.70;99.90;;;;;;5024429;28;20423;-63
2024/01/14 08:12:55;;;;;;;4.33;2.83;;;2.80;99.90;;;;;;5012207;28;20581;-63
2024/01/14 08:15:21;;;;;;;7.40;3.90;;;2.80;99.90;;;;;;5009219;28;20183;-62
2024/01/14 08:17:46;;;;;;;3.77;2.10;;;2.80;99.90;;;;;;5009408;28;20669;-62
2024/01/14 08:20:12;;;;;;;13.07;2.23;;;2.80;99.90;;;;;;5007071;28;20233;-62
2024/01/14 08:22:39;;;;;;;5.40;2.30;;;2.90;99.90;;;;;;5012181;28;20564;-63
2024/01/14 08:25:05;;;;;;;7.80;3.40;;;2.90;99.90;;;;;;5012883;28;20411;-62
2024/01/14 08:27:31;;;;;;;5.97;1.93;;;2.90;99.90;;;;;;5016381;28;20434;-63
2024/01/14 08:29:57;;;;;;;6.30;2.30;;;2.90;99.90;;;;;;5012226;28;20539;-62
2024/01/14 08:32:23;;;;;;;6.03;2.17;;;2.90;99.90;;;;;;5007047;28;20794;-62
2024/01/14 08:34:48;;;;;;;6.23;2.10;;;2.90;99.90;;;;;;5007796;28;20215;-63
2024/01/14 08:37:14;;;;;;;5.43;2.20;;;2.80;99.90;;;;;;5012165;28;20282;-64
2024/01/14 08:39:40;;;;;;;11.03;3.10;;;2.80;99.90;;;;;;5009265;28;20177;-63
2024/01/14 08:42:05;;;;;;;2.20;1.80;;;2.90;99.90;;;;;;5017744;28;20648;-63
2024/01/14 08:44:31;;;;;;;5.20;2.30;;;2.90;99.90;;;;;;5016520;28;20195;-63
2024/01/14 08:46:57;;;;;;;6.37;2.47;;;2.90;99.90;;;;;;5007671;28;20474;-63
2024/01/14 08:49:24;;;;;;;7.30;2.53;;;3.00;99.90;;;;;;5008216;28;20172;-63
2024/01/14 08:51:50;;;;;;;6.47;1.80;;;3.00;99.90;;;;;;5001133;28;20182;-63
2024/01/14 08:54:17;;;;;;;6.80;2.20;;;2.90;99.90;;;;;;5006929;28;20414;-65
2024/01/14 08:56:43;;;;;;;3.27;2.17;;;3.00;99.90;;;;;;5022733;28;20258;-63
2024/01/14 08:59:08;;;;;;;8.33;2.90;;;3.10;99.90;;;;;;5020429;28;20418;-61
2024/01/14 09:01:34;;;;;;;4.00;1.73;;;3.10;99.90;;;;;;5007427;28;20199;-62
2024/01/14 09:04:00;;;;;;;6.87;1.57;;;3.10;99.90;;;;;;5014660;28;20581;-63
2024/01/14 09:06:26;;;;;;;6.87;2.00;;;3.10;99.90;;;;;;5037499;23;20553;-62
2024/01/14 09:08:51;;;;;;;5.10;1.90;;;3.20;99.90;;;;;;5051356;28;20675;-59
2024/01/14 09:11:17;;;;;;;8.43;4.70;;;3.10;99.90;;;;;;5051613;28;20637;-60
2024/01/14 09:13:45;;;;;;;7.10;2.97;;;3.20;99.90;;;;;;5051424;28;20175;-58
2024/01/14 09:16:11;;;;;;;1.80;1.53;;;3.20;99.90;;;;;;5048862;28;20516;-57
2024/01/14 09:18:37;;;;;;;6.20;1.53;;;3.20;99.90;;;;;;5047231;28;20421;-59
2024/01/14 09:21:03;;;;;;;3.40;1.77;;;3.20;99.90;;;;;;5034357;28;20458;-57
2024/01/14 09:23:29;;;;;;;2.27;1.70;;;3.30;99.90;;;;;;5042418;28;20252;-59
2024/01/14 09:25:56;;;;;;;5.13;2.60;;;3.30;99.90;;;;;;5042826;28;20813;-59
2024/01/14 09:28:24;;;;;;;6.43;2.00;;;3.30;99.90;;;;;;5040311;28;20461;-61
2024/01/14 09:30:50;;;;;;;13.40;2.77;;;3.40;99.90;;;;;;5035794;28;20414;-59
2024/01/14 09:33:16;;;;;;;4.63;2.97;;;3.30;99.90;;;;;;5041259;28;20483;-59
2024/01/14 09:35:42;;;;;;;7.90;2.77;;;3.30;99.90;;;;;;5042659;28;20445;-59
2024/01/14 09:38:09;;;;;;;5.87;1.70;;;3.30;99.90;;;;;;5032388;28;20422;-59
2024/01/14 09:40:38;;;;;;;9.10;2.90;;;3.40;99.90;;;;;;5036639;28;20433;-60
2024/01/14 09:43:06;;;;;;;2.37;1.70;;;3.40;99.90;;;;;;5042415;28;20466;-59
2024/01/14 09:45:34;;;;;;;2.50;1.77;;;3.50;99.90;;;;;;5044353;28;20445;-59
2024/01/14 09:48:00;;;;;;;3.00;1.70;;;3.40;99.90;;;;;;5042881;28;20815;-59
2024/01/14 09:50:26;;;;;;;2.63;1.90;;;3.30;99.90;;;;;;5037200;28;20413;-63
2024/01/14 09:52:52;;;;;;;2.87;1.97;;;3.30;99.90;;;;;;5050260;28;20919;-59
2024/01/14 09:55:18;;;;;;;6.20;2.47;;;3.20;99.90;;;;;;5046932;28;20655;-60
2024/01/14 09:57:49;;;;;;;3.40;1.87;;;3.30;99.90;;;;;;5043912;28;20556;-58
2024/01/14 10:00:15;;;;;;;2.70;2.03;;;3.40;99.90;;;;;;5039774;28;20183;-60
2024/01/14 10:02:41;;;;;;;4.20;1.97;;;3.30;99.90;;;;;;5044595;28;20464;-59
2024/01/14 10:05:08;;;;;;;3.33;1.67;;;3.40;99.90;;;;;;5043236;28;20799;-60
2024/01/14 10:07:34;;;;;;;5.30;2.80;;;3.40;99.90;;;;;;5046792;28;20453;-59
2024/01/14 10:10:00;;;;;;;7.90;2.40;;;3.40;99.90;;;;;;5044867;28;20504;-58
2024/01/14 10:12:26;;;;;;;3.00;1.87;;;3.40;99.90;;;;;;5047076;28;20563;-58
2024/01/14 10:14:59;;;;;;;4.70;1.40;;;3.60;99.90;;;;;;5050582;28;20441;-63
2024/01/14 10:17:25;;;;;;;7.90;2.20;;;3.50;99.90;;;;;;5043290;28;20434;-63
2024/01/14 10:19:54;;;;;;;8.30;1.83;;;3.40;99.90;;;;;;5048402;28;20444;-64
2024/01/14 10:22:21;;;;;;;2.43;1.93;;;3.50;99.90;;;;;;5042973;28;20461;-64
2024/01/14 10:24:54;;;;;;;11.53;6.63;;;3.60;99.90;;;;;;5049779;28;20413;-58
2024/01/14 10:27:21;;;;;;;4.60;1.80;;;3.90;99.90;;;;;;5032423;28;20425;-60
2024/01/14 10:29:48;;;;;;;2.77;2.13;;;3.80;99.90;;;;;;5042727;28;20975;-60
2024/01/14 10:32:13;;;;;;;2.27;1.67;;;4.00;99.90;;;;;;5045960;28;20405;-60
2024/01/14 10:34:41;;;;;;;7.10;2.13;;;4.00;99.90;;;;;;5038080;28;20426;-60
2024/01/14 10:37:06;;;;;;;3.00;1.53;;;3.90;99.90;;;;;;5050791;28;20282;-59
2024/01/14 10:39:32;;;;;;;11.03;2.13;;;3.90;99.90;;;;;;5044988;28;20847;-62
2024/01/14 10:41:59;;;;;;;9.10;1.90;;;4.00;99.90;;;;;;5042015;28;20208;-59
2024/01/14 10:44:25;;;;;;;8.60;2.30;;;3.80;99.90;;;;;;5041846;28;20409;-59
2024/01/14 10:46:52;;;;;;;4.97;2.13;;;3.70;99.90;;;;;;5040658;28;20440;-60
2024/01/14 10:49:24;;;;;;;2.73;1.73;;;3.70;99.90;;;;;;5032031;28;20167;-62
2024/01/14 10:51:57;;;;;;;2.93;1.73;;;3.60;99.90;;;;;;5035087;28;20442;-63
2024/01/14 10:54:52;;;;;;;4.00;1.70;;;3.80;99.90;;;;;;5036518;28;20420;-63
2024/01/14 10:57:36;;;;;;;4.73;1.50;;;3.60;99.90;;;;;;5035030;28;20428;-65
2024/01/14 11:00:09;;;;;;;4.00;2.00;;;3.70;99.90;;;;;;5039608;28;20919;-63
2024/01/14 11:02:37;;;;;;;4.33;1.57;;;3.70;99.90;;;;;;5038112;28;20485;-64
2024/01/14 11:05:06;;;;;;;2.20;2.00;;;3.80;99.90;;;;;;5043117;28;20415;-64
2024/01/14 11:07:36;;;;;;;7.13;2.00;;;3.70;99.90;;;;;;5037639;28;20446;-64
2024/01/14 11:10:12;;;;;;;5.30;2.43;;;3.80;99.90;;;;;;5031168;28;20441;-64
2024/01/14 11:12:59;;;;;;;7.53;1.73;;;3.90;99.90;;;;;;5039802;28;20918;-63
2024/01/14 11:16:05;;;;;;;10.53;2.63;;;4.00;99.90;;;;;;5029571;28;20547;-65
2024/01/14 11:18:40;;;;;;;4.27;2.77;;;4.20;99.90;;;;;;5032443;28;20401;-60
2024/01/14 11:21:39;;;;;;;7.67;2.57;;;4.50;99.90;;;;;;5042133;28;20421;-61
2024/01/14 11:24:06;;;;;;;3.57;1.90;;;4.40;99.90;;;;;;5041421;28;20920;-60
2024/01/14 11:26:31;;;;;;;8.40;2.30;;;4.40;99.90;;;;;;5043883;28;20445;-61
2024/01/14 11:28:59;;;;;;;5.20;2.50;;;4.40;99.90;;;;;;5042878;28;20421;-60
2024/01/14 11:32:02;;;;;;;7.40;2.40;;;4.30;99.90;;;;;;5040513;28;20179;-61
2024/01/14 11:34:46;;;;;;;6.60;2.17;;;4.40;99.90;;;;;;5039083;28;20415;-60
2024/01/14 11:37:30;;;;;;;6.27;2.13;;;4.40;99.90;;;;;;5046594;28;20433;-60
2024/01/14 11:40:26;;;;;;;5.33;1.90;;;4.60;99.90;;;;;;5037854;28;20489;-61
2024/01/14 11:43:05;;;;;;;6.10;1.90;;;4.30;99.90;;;;;;5042949;28;20466;-60
2024/01/14 11:45:32;;;;;;;2.90;1.73;;;4.30;99.90;;;;;;5034470;28;20434;-65
2024/01/14 11:47:58;;;;;;;27.27;15.53;;;4.40;99.90;;;;;;5040500;28;20923;-57
2024/01/14 11:50:25;;;;;;;10.30;3.47;;;4.40;99.90;;;;;;5038869;28;20417;-61
2024/01/14 11:52:53;;;;;;;2.60;2.27;;;4.40;99.90;;;;;;5033828;28;20429;-61
2024/01/14 11:55:23;;;;;;;6.30;3.50;;;4.10;99.90;;;;;;5014574;28;20464;-61
2024/01/14 11:57:49;;;;;;;3.53;2.80;;;4.00;99.90;;;;;;5036662;28;20410;-60
2024/01/14 12:00:17;;;;;;;6.23;2.43;;;4.00;99.90;;;;;;5034857;28;20449;-61
2024/01/14 12:02:42;;;;;;;4.73;2.40;;;4.10;99.90;;;;;;5039022;28;20195;-59
2024/01/14 12:05:15;;;;;;;4.77;2.30;;;4.00;99.90;;;;;;5037077;28;20497;-61
2024/01/14 12:07:41;;;;;;;9.20;2.50;;;3.90;99.90;;;;;;5037396;28;20184;-60
2024/01/14 12:10:07;;;;;;;7.97;2.10;;;3.80;99.90;;;;;;5035702;28;20434;-60
2024/01/14 12:12:36;;;;;;;3.33;1.87;;;3.80;99.90;;;;;;5046523;28;20531;-60
2024/01/14 12:15:02;;;;;;;6.33;2.70;;;3.90;99.90;;;;;;5033505;28;20231;-60
2024/01/14 12:17:28;;;;;;;8.47;2.70;;;3.90;99.90;;;;;;5026400;28;20441;-60
2024/01/14 12:20:00;;;;;;;3.33;1.80;;;4.00;99.90;;;;;;5044680;28;20525;-61
2024/01/14 12:22:26;;;;;;;5.03;1.90;;;3.80;99.90;;;;;;5037925;28;20187;-59
2024/01/14 12:24:52;;;;;;;3.30;1.80;;;3.80;99.90;;;;;;5039642;28;20972;-60
2024/01/14 12:27:17;;;;;;;4.67;1.90;;;3.90;99.90;;;;;;5040311;28;20196;-61
2024/01/14 12:29:43;;;;;;;5.57;3.20;;;3.90;99.90;;;;;;5039894;28;20172;-60
2024/01/14 12:32:10;;;;;;;3.77;1.97;;;3.90;99.90;;;;;;5033819;28;20191;-60
2024/01/14 12:34:43;;;;;;;3.70;2.53;;;3.90;99.90;;;;;;5045632;28;20182;-61
2024/01/14 12:37:10;;;;;;;4.70;2.03;;;4.00;99.90;;;;;;5046197;28;20448;-60
2024/01/14 12:39:36;;;;;;;6.17;2.20;;;4.00;99.90;;;;;;5041234;28;20789;-60
2024/01/14 12:42:02;;;;;;;3.80;1.83;;;4.00;99.90;;;;;;5046691;28;20457;-60
2024/01/14 12:44:31;;;;;;;6.83;2.63;;;4.00;99.90;;;;;;5035842;28;20469;-61
2024/01/14 12:47:03;;;;;;;4.10;1.80;;;4.00;99.90;;;;;;5039571;28;20441;-60
2024/01/14 12:49:31;;;;;;;4.43;2.40;;;4.00;99.90;;;;;;5038950;28;20483;-61
2024/01/14 12:52:07;;;;;;;6.77;1.83;;;4.00;99.90;;;;;;5048087;28;20456;-60
2024/01/14 12:54:33;;;;;;;2.77;2.00;;;4.00;99.90;;;;;;5031253;28;20417;-60